createdAt,value
2022-12-24T00:00:52.832Z,0.00
2022-12-24T00:01:52.919Z,0.00
2022-12-24T00:02:52.971Z,0.00
2022-12-24T00:03:52.980Z,0.00
2022-12-24T00:05:00.374Z,0.00
2022-12-24T00:05:53.133Z,0.00
2022-12-24T00:06:53.211Z,0.00
2022-12-24T00:07:53.291Z,0.00
2022-12-24T00:08:53.372Z,0.00
2022-12-24T00:09:53.412Z,0.00
2022-12-24T00:10:53.521Z,0.00
2022-12-24T00:11:53.561Z,0.00
2022-12-24T00:12:53.647Z,0.00
2022-12-24T00:13:53.743Z,0.00
2022-12-24T00:14:53.811Z,0.00
2022-12-24T00:15:53.886Z,0.00
2022-12-24T00:16:54.045Z,0.00
2022-12-24T00:17:54.030Z,0.00
2022-12-24T00:18:54.119Z,0.00
2022-12-24T00:19:54.163Z,0.00
2022-12-24T00:20:54.256Z,0.00
2022-12-24T00:21:54.327Z,0.00
2022-12-24T00:22:54.458Z,0.00
2022-12-24T00:23:54.529Z,0.00
2022-12-24T00:24:54.603Z,0.00
2022-12-24T00:25:54.686Z,0.00
2022-12-24T00:26:54.754Z,0.00
2022-12-24T00:27:54.836Z,0.00
2022-12-24T00:28:54.918Z,0.00
2022-12-24T00:29:54.998Z,0.00
2022-12-24T00:30:55.133Z,0.00
2022-12-24T00:31:55.162Z,0.00
2022-12-24T00:32:55.275Z,0.00
2022-12-24T00:33:55.381Z,0.00
2022-12-24T00:34:55.446Z,0.00
2022-12-24T00:35:55.543Z,0.00
2022-12-24T00:36:55.630Z,0.00
2022-12-24T00:37:55.705Z,0.00
2022-12-24T00:38:55.822Z,0.00
2022-12-24T00:39:55.857Z,0.00
2022-12-24T00:40:55.943Z,0.00
2022-12-24T00:41:56.027Z,0.00
2022-12-24T00:42:56.119Z,0.00
2022-12-24T00:43:56.261Z,0.00
2022-12-24T00:44:56.277Z,0.00
2022-12-24T00:45:56.384Z,0.00
2022-12-24T00:46:56.451Z,0.00
2022-12-24T00:47:56.536Z,0.00
2022-12-24T00:48:56.650Z,0.00
2022-12-24T00:49:56.684Z,0.00
2022-12-24T00:50:56.841Z,0.00
2022-12-24T00:51:56.835Z,0.00
2022-12-24T00:52:56.907Z,0.00
2022-12-24T00:53:56.994Z,0.00
2022-12-24T00:54:57.040Z,0.00
2022-12-24T00:55:57.124Z,0.00
2022-12-24T00:56:57.191Z,0.00
2022-12-24T00:57:57.259Z,0.00
2022-12-24T00:58:57.357Z,0.00
2022-12-24T00:59:57.408Z,0.00
2022-12-24T01:00:57.617Z,0.00
2022-12-24T01:01:57.845Z,0.00
2022-12-24T01:02:57.920Z,0.00
2022-12-24T01:03:57.756Z,0.00
2022-12-24T01:04:57.831Z,0.00
2022-12-24T01:05:57.909Z,0.00
2022-12-24T01:06:57.979Z,0.00
2022-12-24T01:07:58.060Z,0.00
2022-12-24T01:08:58.147Z,0.00
2022-12-24T01:09:58.210Z,0.00
2022-12-24T01:10:58.263Z,0.00
2022-12-24T01:11:58.340Z,0.00
2022-12-24T01:12:58.429Z,0.00
2022-12-24T01:13:58.521Z,0.00
2022-12-24T01:14:58.599Z,0.00
2022-12-24T01:15:58.818Z,0.00
2022-12-24T01:16:58.756Z,0.00
2022-12-24T01:17:58.835Z,0.00
2022-12-24T01:18:58.934Z,0.00
2022-12-24T01:19:58.985Z,0.00
2022-12-24T01:20:59.081Z,0.00
2022-12-24T01:21:59.144Z,0.00
2022-12-24T01:22:59.221Z,0.00
2022-12-24T01:23:59.327Z,0.00
2022-12-24T01:24:59.372Z,0.00
2022-12-24T01:25:59.482Z,0.00
2022-12-24T01:26:59.563Z,0.00
2022-12-24T01:27:59.634Z,0.00
2022-12-24T01:28:59.740Z,0.00
2022-12-24T01:29:59.833Z,0.00
2022-12-24T01:31:00.000Z,0.00
2022-12-24T01:31:59.997Z,0.00
2022-12-24T01:33:00.111Z,0.00
2022-12-24T01:34:00.193Z,0.00
2022-12-24T01:35:00.251Z,0.00
2022-12-24T01:36:00.331Z,0.00
2022-12-24T01:37:00.425Z,0.00
2022-12-24T01:38:00.498Z,0.00
2022-12-24T01:39:00.599Z,0.00
2022-12-24T01:40:00.697Z,0.00
2022-12-24T01:41:00.753Z,0.00
2022-12-24T01:42:00.822Z,0.00
2022-12-24T01:43:00.900Z,0.00
2022-12-24T01:44:00.994Z,0.00
2022-12-24T01:45:01.043Z,0.00
2022-12-24T01:46:01.130Z,0.00
2022-12-24T01:47:01.204Z,0.00
2022-12-24T01:48:01.276Z,0.00
2022-12-24T01:49:01.377Z,0.00
2022-12-24T01:50:01.451Z,0.00
2022-12-24T01:51:01.531Z,0.00
2022-12-24T01:52:01.625Z,0.00
2022-12-24T01:53:01.692Z,0.00
2022-12-24T01:54:01.794Z,0.00
2022-12-24T01:55:01.840Z,0.00
2022-12-24T01:56:01.927Z,0.00
2022-12-24T01:57:01.988Z,0.00
2022-12-24T01:58:02.103Z,0.00
2022-12-24T01:59:02.188Z,0.00
2022-12-24T02:00:02.274Z,0.00
2022-12-24T02:01:02.430Z,0.00
2022-12-24T02:02:02.626Z,0.00
2022-12-24T02:03:02.680Z,0.00
2022-12-24T02:04:02.635Z,0.00
2022-12-24T02:05:02.673Z,0.00
2022-12-24T02:06:02.773Z,0.00
2022-12-24T02:07:02.839Z,0.00
2022-12-24T02:08:02.935Z,0.00
2022-12-24T02:09:03.039Z,0.00
2022-12-24T02:10:03.154Z,0.00
2022-12-24T02:11:03.204Z,0.00
2022-12-24T02:12:03.304Z,0.00
2022-12-24T02:13:03.423Z,0.00
2022-12-24T02:14:03.497Z,0.00
2022-12-24T02:15:03.589Z,0.00
2022-12-24T02:16:03.698Z,0.00
2022-12-24T02:17:03.737Z,0.00
2022-12-24T02:18:03.816Z,0.00
2022-12-24T02:19:03.899Z,0.00
2022-12-24T02:20:03.974Z,0.00
2022-12-24T02:21:04.046Z,0.00
2022-12-24T02:22:04.119Z,0.00
2022-12-24T02:23:04.200Z,0.00
2022-12-24T02:24:04.283Z,0.00
2022-12-24T02:25:04.324Z,0.00
2022-12-24T02:26:04.431Z,0.00
2022-12-24T02:27:04.510Z,0.00
2022-12-24T02:28:04.596Z,0.00
2022-12-24T02:29:04.690Z,0.00
2022-12-24T02:30:04.768Z,0.00
2022-12-24T02:31:04.891Z,0.00
2022-12-24T02:32:04.918Z,0.00
2022-12-24T02:33:04.996Z,0.00
2022-12-24T02:34:05.127Z,0.00
2022-12-24T02:35:05.172Z,0.00
2022-12-24T02:36:05.256Z,0.00
2022-12-24T02:37:05.346Z,0.00
2022-12-24T02:38:05.439Z,0.00
2022-12-24T02:39:05.530Z,0.00
2022-12-24T02:40:10.540Z,0.00
2022-12-24T02:41:05.694Z,0.00
2022-12-24T02:42:05.757Z,0.00
2022-12-24T02:43:05.831Z,0.00
2022-12-24T02:44:05.939Z,0.00
2022-12-24T02:45:06.007Z,0.00
2022-12-24T02:46:06.179Z,0.00
2022-12-24T02:47:06.227Z,0.00
2022-12-24T02:48:06.271Z,0.00
2022-12-24T02:49:06.362Z,0.00
2022-12-24T02:50:06.440Z,0.00
2022-12-24T02:51:06.523Z,0.00
2022-12-24T02:52:06.593Z,0.00
2022-12-24T02:53:06.667Z,0.00
2022-12-24T02:54:06.754Z,0.00
2022-12-24T02:55:06.800Z,0.00
2022-12-24T02:56:06.872Z,0.00
2022-12-24T02:57:06.956Z,0.00
2022-12-24T02:58:07.065Z,0.00
2022-12-24T02:59:07.135Z,0.00
2022-12-24T03:00:07.213Z,0.00
2022-12-24T03:01:07.448Z,0.00
2022-12-24T03:02:07.571Z,0.00
2022-12-24T03:03:07.694Z,0.00
2022-12-24T03:04:07.546Z,0.00
2022-12-24T03:05:07.615Z,0.00
2022-12-24T03:06:07.679Z,0.00
2022-12-24T03:07:07.743Z,0.00
2022-12-24T03:08:07.805Z,0.00
2022-12-24T03:09:07.911Z,0.00
2022-12-24T03:10:07.994Z,0.00
2022-12-24T03:11:08.078Z,0.00
2022-12-24T03:12:08.160Z,0.00
2022-12-24T03:13:08.236Z,0.00
2022-12-24T03:14:08.329Z,0.00
2022-12-24T03:15:08.375Z,0.00
2022-12-24T03:16:08.494Z,0.00
2022-12-24T03:17:08.550Z,0.00
2022-12-24T03:18:08.659Z,0.00
2022-12-24T03:19:08.768Z,0.00
2022-12-24T03:20:08.839Z,0.00
2022-12-24T03:21:08.917Z,0.00
2022-12-24T03:22:08.986Z,0.00
2022-12-24T03:23:09.068Z,0.00
2022-12-24T03:24:09.147Z,0.00
2022-12-24T03:25:09.219Z,0.00
2022-12-24T03:26:09.308Z,0.00
2022-12-24T03:27:09.374Z,0.00
2022-12-24T03:28:09.450Z,0.00
2022-12-24T03:29:09.542Z,0.00
2022-12-24T03:30:09.625Z,0.00
2022-12-24T03:31:09.752Z,0.00
2022-12-24T03:32:09.765Z,0.00
2022-12-24T03:33:09.848Z,0.00
2022-12-24T03:34:09.947Z,0.00
2022-12-24T03:35:10.000Z,0.00
2022-12-24T03:36:10.069Z,0.00
2022-12-24T03:37:10.153Z,0.00
2022-12-24T03:38:10.262Z,0.00
2022-12-24T03:39:10.355Z,0.00
2022-12-24T03:40:10.457Z,0.00
2022-12-24T03:41:10.514Z,0.00
2022-12-24T03:42:10.571Z,0.00
2022-12-24T03:43:10.636Z,0.00
2022-12-24T03:44:10.725Z,0.00
2022-12-24T03:45:10.772Z,0.00
2022-12-24T03:46:10.933Z,0.00
2022-12-24T03:47:10.933Z,0.00
2022-12-24T03:48:11.007Z,0.00
2022-12-24T03:49:11.132Z,0.00
2022-12-24T03:50:11.184Z,0.00
2022-12-24T03:51:11.257Z,0.00
2022-12-24T03:52:11.324Z,0.00
2022-12-24T03:53:11.402Z,0.00
2022-12-24T03:54:11.490Z,0.00
2022-12-24T03:55:11.532Z,0.00
2022-12-24T03:56:11.605Z,0.00
2022-12-24T03:57:11.684Z,0.00
2022-12-24T03:58:11.776Z,0.00
2022-12-24T03:59:11.961Z,0.00
2022-12-24T04:00:11.952Z,0.00
2022-12-24T04:01:12.133Z,0.00
2022-12-24T04:02:12.344Z,0.00
2022-12-24T04:03:12.245Z,0.00
2022-12-24T04:04:12.271Z,0.00
2022-12-24T04:05:12.309Z,0.00
2022-12-24T04:06:12.388Z,0.00
2022-12-24T04:07:12.477Z,0.00
2022-12-24T04:08:12.547Z,0.00
2022-12-24T04:09:12.639Z,0.00
2022-12-24T04:10:12.710Z,0.00
2022-12-24T04:11:12.795Z,0.00
2022-12-24T04:12:12.888Z,0.00
2022-12-24T04:13:12.961Z,0.00
2022-12-24T04:14:13.052Z,0.00
2022-12-24T04:15:13.098Z,0.00
2022-12-24T04:16:13.234Z,0.00
2022-12-24T04:17:13.268Z,0.00
2022-12-24T04:18:13.337Z,0.00
2022-12-24T04:19:13.446Z,0.00
2022-12-24T04:20:13.559Z,0.00
2022-12-24T04:21:13.585Z,0.00
2022-12-24T04:22:13.657Z,0.00
2022-12-24T04:23:13.749Z,0.00
2022-12-24T04:24:13.823Z,0.00
2022-12-24T04:25:13.864Z,0.00
2022-12-24T04:26:13.956Z,0.00
2022-12-24T04:27:14.016Z,0.00
2022-12-24T04:28:14.110Z,0.00
2022-12-24T04:29:14.182Z,0.00
2022-12-24T04:30:14.276Z,0.00
2022-12-24T04:31:14.326Z,0.00
2022-12-24T04:32:14.482Z,0.00
2022-12-24T04:33:14.471Z,0.00
2022-12-24T04:34:14.585Z,0.00
2022-12-24T04:35:14.618Z,0.00
2022-12-24T04:36:14.728Z,0.00
2022-12-24T04:37:14.794Z,0.00
2022-12-24T04:38:14.886Z,0.00
2022-12-24T04:39:14.980Z,0.00
2022-12-24T04:40:15.045Z,0.00
2022-12-24T04:41:22.761Z,0.00
2022-12-24T04:42:15.221Z,0.00
2022-12-24T04:43:15.281Z,0.00
2022-12-24T04:44:15.376Z,0.00
2022-12-24T04:45:15.446Z,0.00
2022-12-24T04:46:15.568Z,0.00
2022-12-24T04:47:15.598Z,0.00
2022-12-24T04:48:15.675Z,0.00
2022-12-24T04:49:15.776Z,0.00
2022-12-24T04:50:15.856Z,0.00
2022-12-24T04:51:15.923Z,0.00
2022-12-24T04:52:15.990Z,0.00
2022-12-24T04:53:16.086Z,0.00
2022-12-24T04:54:16.190Z,0.00
2022-12-24T04:55:16.245Z,0.00
2022-12-24T04:56:16.330Z,0.00
2022-12-24T04:57:16.421Z,0.00
2022-12-24T04:58:16.494Z,0.00
2022-12-24T04:59:16.607Z,0.00
2022-12-24T05:00:16.665Z,0.00
2022-12-24T05:01:16.862Z,0.00
2022-12-24T05:02:16.996Z,0.00
2022-12-24T05:03:17.038Z,0.00
2022-12-24T05:04:17.004Z,0.00
2022-12-24T05:05:17.061Z,0.00
2022-12-24T05:06:17.134Z,0.00
2022-12-24T05:07:17.239Z,0.00
2022-12-24T05:08:17.300Z,0.00
2022-12-24T05:09:17.405Z,0.00
2022-12-24T05:10:17.462Z,0.00
2022-12-24T05:11:17.553Z,0.00
2022-12-24T05:12:17.613Z,0.00
2022-12-24T05:13:17.710Z,0.00
2022-12-24T05:14:17.823Z,0.00
2022-12-24T05:15:17.879Z,0.00
2022-12-24T05:16:18.077Z,0.00
2022-12-24T05:17:18.008Z,0.00
2022-12-24T05:18:18.085Z,0.00
2022-12-24T05:19:18.193Z,0.00
2022-12-24T05:20:18.267Z,0.00
2022-12-24T05:21:18.364Z,0.00
2022-12-24T05:22:18.431Z,0.00
2022-12-24T05:23:18.517Z,0.00
2022-12-24T05:24:18.600Z,0.00
2022-12-24T05:25:18.675Z,0.00
2022-12-24T05:26:18.744Z,0.00
2022-12-24T05:27:18.846Z,0.00
2022-12-24T05:28:18.925Z,0.00
2022-12-24T05:29:19.044Z,0.00
2022-12-24T05:30:19.085Z,0.00
2022-12-24T05:31:19.255Z,0.00
2022-12-24T05:32:19.251Z,0.00
2022-12-24T05:33:19.346Z,0.00
2022-12-24T05:34:19.460Z,0.00
2022-12-24T05:35:19.516Z,0.00
2022-12-24T05:36:19.628Z,0.00
2022-12-24T05:37:19.698Z,0.00
2022-12-24T05:38:19.778Z,0.00
2022-12-24T05:39:19.879Z,0.00
2022-12-24T05:40:19.935Z,0.00
2022-12-24T05:41:19.993Z,0.00
2022-12-24T05:42:20.105Z,0.00
2022-12-24T05:43:20.148Z,0.00
2022-12-24T05:44:20.275Z,0.00
2022-12-24T05:45:20.302Z,0.00
2022-12-24T05:46:20.436Z,0.00
2022-12-24T05:47:20.448Z,0.00
2022-12-24T05:48:20.538Z,0.00
2022-12-24T05:49:20.618Z,0.00
2022-12-24T05:50:20.689Z,0.00
2022-12-24T05:51:20.757Z,0.00
2022-12-24T05:52:20.852Z,0.00
2022-12-24T05:53:20.926Z,0.00
2022-12-24T05:54:21.273Z,0.00
2022-12-24T05:55:21.102Z,0.00
2022-12-24T05:56:21.228Z,0.00
2022-12-24T05:57:21.281Z,0.00
2022-12-24T05:58:21.370Z,0.00
2022-12-24T05:59:21.462Z,0.00
2022-12-24T06:00:21.525Z,0.00
2022-12-24T06:01:21.655Z,0.00
2022-12-24T06:02:21.707Z,0.00
2022-12-24T06:03:21.760Z,0.00
2022-12-24T06:04:28.412Z,0.00
2022-12-24T06:05:21.912Z,0.00
2022-12-24T06:06:21.996Z,0.00
2022-12-24T06:07:22.057Z,0.00
2022-12-24T06:08:22.155Z,0.00
2022-12-24T06:09:22.260Z,0.00
2022-12-24T06:10:22.330Z,0.00
2022-12-24T06:11:22.393Z,0.00
2022-12-24T06:12:22.484Z,0.00
2022-12-24T06:13:22.540Z,0.00
2022-12-24T06:14:22.645Z,0.00
2022-12-24T06:15:24.213Z,0.00
2022-12-24T06:16:22.908Z,0.00
2022-12-24T06:17:22.844Z,0.00
2022-12-24T06:18:22.966Z,0.00
2022-12-24T06:19:23.031Z,0.00
2022-12-24T06:20:23.093Z,0.00
2022-12-24T06:21:23.153Z,0.00
2022-12-24T06:22:23.249Z,0.00
2022-12-24T06:23:23.316Z,0.00
2022-12-24T06:24:23.431Z,0.00
2022-12-24T06:25:23.495Z,0.00
2022-12-24T06:26:23.596Z,0.00
2022-12-24T06:27:23.655Z,0.00
2022-12-24T06:28:23.754Z,0.00
2022-12-24T06:29:23.838Z,0.00
2022-12-24T06:30:23.902Z,0.00
2022-12-24T06:31:24.069Z,0.00
2022-12-24T06:32:24.087Z,0.00
2022-12-24T06:33:24.139Z,0.00
2022-12-24T06:34:24.259Z,0.00
2022-12-24T06:35:24.298Z,0.00
2022-12-24T06:36:24.397Z,0.00
2022-12-24T06:37:24.454Z,0.00
2022-12-24T06:38:24.588Z,0.00
2022-12-24T06:39:24.640Z,0.00
2022-12-24T06:40:24.712Z,0.00
2022-12-24T06:41:24.781Z,0.00
2022-12-24T06:42:24.869Z,0.00
2022-12-24T06:43:24.954Z,0.00
2022-12-24T06:44:25.046Z,0.00
2022-12-24T06:45:25.110Z,0.00
2022-12-24T06:46:25.282Z,0.00
2022-12-24T06:47:25.273Z,0.00
2022-12-24T06:48:25.376Z,0.00
2022-12-24T06:49:25.452Z,0.00
2022-12-24T06:50:25.519Z,0.00
2022-12-24T06:51:25.588Z,0.00
2022-12-24T06:52:25.687Z,0.00
2022-12-24T06:53:25.767Z,0.00
2022-12-24T06:54:25.873Z,0.00
2022-12-24T06:55:25.910Z,0.00
2022-12-24T06:56:25.992Z,0.00
2022-12-24T06:57:26.059Z,0.00
2022-12-24T06:58:26.158Z,0.00
2022-12-24T06:59:26.236Z,0.00
2022-12-24T07:00:26.315Z,0.00
2022-12-24T07:01:26.468Z,0.00
2022-12-24T07:02:26.578Z,0.00
2022-12-24T07:03:26.619Z,0.00
2022-12-24T07:04:26.865Z,0.00
2022-12-24T07:05:26.691Z,0.00
2022-12-24T07:06:26.785Z,0.00
2022-12-24T07:07:26.861Z,0.00
2022-12-24T07:08:26.965Z,0.00
2022-12-24T07:09:27.066Z,0.00
2022-12-24T07:10:27.123Z,0.00
2022-12-24T07:11:27.201Z,0.00
2022-12-24T07:12:27.314Z,0.00
2022-12-24T07:13:27.385Z,0.00
2022-12-24T07:14:27.501Z,0.00
2022-12-24T07:15:27.572Z,0.00
2022-12-24T07:16:27.767Z,0.00
2022-12-24T07:17:27.952Z,0.00
2022-12-24T07:18:27.822Z,0.00
2022-12-24T07:19:27.917Z,0.00
2022-12-24T07:20:27.973Z,0.00
2022-12-24T07:21:28.066Z,0.00
2022-12-24T07:22:28.133Z,0.00
2022-12-24T07:23:28.208Z,0.00
2022-12-24T07:24:28.312Z,5.62
2022-12-24T07:25:28.370Z,5.62
2022-12-24T07:26:28.483Z,5.62
2022-12-24T07:27:28.551Z,5.62
2022-12-24T07:28:28.634Z,5.62
2022-12-24T07:29:28.718Z,5.62
2022-12-24T07:30:28.873Z,5.62
2022-12-24T07:31:28.942Z,5.62
2022-12-24T07:32:28.967Z,5.62
2022-12-24T07:33:29.066Z,11.25
2022-12-24T07:34:29.177Z,11.25
2022-12-24T07:35:29.191Z,11.25
2022-12-24T07:36:29.265Z,11.25
2022-12-24T07:37:29.348Z,11.25
2022-12-24T07:38:29.436Z,11.25
2022-12-24T07:39:29.532Z,11.25
2022-12-24T07:40:29.593Z,16.88
2022-12-24T07:41:29.704Z,16.88
2022-12-24T07:42:29.754Z,22.50
2022-12-24T07:43:29.825Z,22.50
2022-12-24T07:44:29.932Z,28.12
2022-12-24T07:45:29.989Z,33.75
2022-12-24T07:46:30.114Z,39.38
2022-12-24T07:47:30.159Z,45.00
2022-12-24T07:48:30.229Z,50.62
2022-12-24T07:49:30.326Z,56.25
2022-12-24T07:50:30.390Z,61.88
2022-12-24T07:51:30.480Z,61.88
2022-12-24T07:52:30.554Z,67.50
2022-12-24T07:53:30.633Z,73.12
2022-12-24T07:54:30.716Z,73.12
2022-12-24T07:55:30.792Z,78.75
2022-12-24T07:56:30.878Z,84.38
2022-12-24T07:57:30.950Z,84.38
2022-12-24T07:58:31.052Z,84.38
2022-12-24T07:59:31.144Z,90.00
2022-12-24T08:00:31.236Z,95.62
2022-12-24T08:01:31.407Z,95.62
2022-12-24T08:02:31.671Z,106.88
2022-12-24T08:03:31.558Z,112.50
2022-12-24T08:04:31.534Z,112.50
2022-12-24T08:05:31.596Z,118.12
2022-12-24T08:06:31.696Z,129.38
2022-12-24T08:07:31.790Z,157.50
2022-12-24T08:08:31.879Z,163.12
2022-12-24T08:09:31.966Z,163.12
2022-12-24T08:10:32.034Z,163.12
2022-12-24T08:11:32.127Z,180.00
2022-12-24T08:12:32.218Z,180.00
2022-12-24T08:13:32.300Z,180.00
2022-12-24T08:14:32.391Z,185.62
2022-12-24T08:15:32.429Z,191.25
2022-12-24T08:16:32.563Z,180.00
2022-12-24T08:17:32.812Z,180.00
2022-12-24T08:18:32.684Z,157.50
2022-12-24T08:19:32.773Z,146.25
2022-12-24T08:20:32.849Z,135.00
2022-12-24T08:21:32.933Z,140.62
2022-12-24T08:22:33.009Z,151.88
2022-12-24T08:23:33.114Z,157.50
2022-12-24T08:24:33.182Z,180.00
2022-12-24T08:25:33.261Z,213.75
2022-12-24T08:26:33.332Z,225.00
2022-12-24T08:27:33.417Z,230.62
2022-12-24T08:28:33.512Z,236.25
2022-12-24T08:29:33.610Z,236.25
2022-12-24T08:30:33.667Z,230.62
2022-12-24T08:31:33.784Z,230.62
2022-12-24T08:32:33.853Z,236.25
2022-12-24T08:33:33.931Z,247.50
2022-12-24T08:34:34.066Z,270.00
2022-12-24T08:35:34.097Z,292.50
2022-12-24T08:36:34.218Z,320.62
2022-12-24T08:37:34.278Z,315.00
2022-12-24T08:38:34.360Z,433.12
2022-12-24T08:39:34.446Z,416.25
2022-12-24T08:40:34.491Z,405.00
2022-12-24T08:41:34.580Z,393.75
2022-12-24T08:42:34.699Z,421.88
2022-12-24T08:43:34.718Z,466.88
2022-12-24T08:44:34.813Z,517.50
2022-12-24T08:45:40.167Z,545.62
2022-12-24T08:46:35.099Z,534.38
2022-12-24T08:47:35.042Z,556.88
2022-12-24T08:48:35.133Z,585.00
2022-12-24T08:49:35.227Z,618.75
2022-12-24T08:50:35.294Z,641.25
2022-12-24T08:51:35.369Z,697.50
2022-12-24T08:52:35.472Z,765.00
2022-12-24T08:53:35.572Z,731.25
2022-12-24T08:54:35.667Z,618.75
2022-12-24T08:55:35.720Z,933.75
2022-12-24T08:56:35.821Z,939.38
2022-12-24T08:57:35.902Z,905.62
2022-12-24T08:58:36.052Z,905.62
2022-12-24T08:59:36.077Z,928.12
2022-12-24T09:00:36.163Z,630.00
2022-12-24T09:01:36.318Z,787.50
2022-12-24T09:02:36.426Z,742.50
2022-12-24T09:03:36.435Z,517.50
2022-12-24T09:04:36.481Z,787.50
2022-12-24T09:05:36.533Z,725.62
2022-12-24T09:06:36.614Z,438.75
2022-12-24T09:07:36.676Z,433.12
2022-12-24T09:08:36.746Z,478.12
2022-12-24T09:09:38.238Z,511.88
2022-12-24T09:10:36.913Z,652.50
2022-12-24T09:11:36.989Z,618.75
2022-12-24T09:12:37.088Z,596.25
2022-12-24T09:13:37.197Z,686.25
2022-12-24T09:14:37.273Z,703.12
2022-12-24T09:15:37.312Z,821.25
2022-12-24T09:16:37.482Z,911.25
2022-12-24T09:17:37.488Z,911.25
2022-12-24T09:18:37.547Z,866.25
2022-12-24T09:19:37.624Z,781.88
2022-12-24T09:20:41.475Z,562.50
2022-12-24T09:21:37.802Z,748.12
2022-12-24T09:22:37.895Z,511.88
2022-12-24T09:23:37.958Z,540.00
2022-12-24T09:24:38.089Z,416.25
2022-12-24T09:25:38.125Z,303.75
2022-12-24T09:26:38.207Z,438.75
2022-12-24T09:27:38.292Z,309.38
2022-12-24T09:28:38.381Z,281.25
2022-12-24T09:29:38.488Z,348.75
2022-12-24T09:30:38.547Z,360.00
2022-12-24T09:31:38.702Z,523.12
2022-12-24T09:32:38.720Z,579.38
2022-12-24T09:33:38.795Z,438.75
2022-12-24T09:34:38.906Z,298.12
2022-12-24T09:35:38.929Z,365.62
2022-12-24T09:36:39.005Z,478.12
2022-12-24T09:37:39.105Z,416.25
2022-12-24T09:38:39.153Z,331.88
2022-12-24T09:39:39.257Z,360.00
2022-12-24T09:40:39.309Z,523.12
2022-12-24T09:41:39.382Z,691.88
2022-12-24T09:42:39.486Z,714.38
2022-12-24T09:43:39.562Z,669.38
2022-12-24T09:44:39.675Z,478.12
2022-12-24T09:45:39.840Z,556.88
2022-12-24T09:46:39.807Z,444.38
2022-12-24T09:47:39.877Z,579.38
2022-12-24T09:48:39.988Z,433.12
2022-12-24T09:49:40.091Z,511.88
2022-12-24T09:50:40.145Z,528.75
2022-12-24T09:51:40.206Z,343.12
2022-12-24T09:52:40.290Z,303.75
2022-12-24T09:53:40.365Z,258.75
2022-12-24T09:54:45.966Z,264.38
2022-12-24T09:55:40.554Z,264.38
2022-12-24T09:56:40.629Z,315.00
2022-12-24T09:57:40.682Z,270.00
2022-12-24T09:58:40.768Z,264.38
2022-12-24T09:59:40.875Z,275.62
2022-12-24T10:00:46.062Z,360.00
2022-12-24T10:01:41.165Z,275.62
2022-12-24T10:02:41.247Z,258.75
2022-12-24T10:03:41.244Z,270.00
2022-12-24T10:04:41.225Z,320.62
2022-12-24T10:05:41.311Z,298.12
2022-12-24T10:06:41.376Z,281.25
2022-12-24T10:07:41.484Z,286.88
2022-12-24T10:08:41.559Z,241.88
2022-12-24T10:09:41.664Z,225.00
2022-12-24T10:10:41.727Z,213.75
2022-12-24T10:11:44.218Z,208.12
2022-12-24T10:12:47.593Z,202.50
2022-12-24T10:13:41.951Z,196.88
2022-12-24T10:14:42.021Z,202.50
2022-12-24T10:15:42.094Z,191.25
2022-12-24T10:16:42.223Z,196.88
2022-12-24T10:17:42.260Z,219.38
2022-12-24T10:18:48.846Z,213.75
2022-12-24T10:19:42.412Z,230.62
2022-12-24T10:20:42.448Z,241.88
2022-12-24T10:21:42.561Z,241.88
2022-12-24T10:22:42.613Z,247.50
2022-12-24T10:23:42.720Z,247.50
2022-12-24T10:24:49.872Z,247.50
2022-12-24T10:25:42.889Z,241.88
2022-12-24T10:26:42.969Z,241.88
2022-12-24T10:27:43.062Z,236.25
2022-12-24T10:28:43.099Z,241.88
2022-12-24T10:29:43.192Z,247.50
2022-12-24T10:30:43.283Z,258.75
2022-12-24T10:31:43.303Z,270.00
2022-12-24T10:32:43.384Z,275.62
2022-12-24T10:33:43.464Z,281.25
2022-12-24T10:34:43.565Z,275.62
2022-12-24T10:35:43.638Z,264.38
2022-12-24T10:36:43.720Z,264.38
2022-12-24T10:37:43.816Z,264.38
2022-12-24T10:38:43.885Z,264.38
2022-12-24T10:39:43.983Z,275.62
2022-12-24T10:40:44.014Z,275.62
2022-12-24T10:41:44.086Z,275.62
2022-12-24T10:42:50.617Z,281.25
2022-12-24T10:43:44.255Z,292.50
2022-12-24T10:44:44.313Z,303.75
2022-12-24T10:45:44.431Z,303.75
2022-12-24T10:46:44.467Z,292.50
2022-12-24T10:47:44.525Z,286.88
2022-12-24T10:48:50.308Z,270.00
2022-12-24T10:49:44.684Z,253.12
2022-12-24T10:50:44.732Z,241.88
2022-12-24T10:51:44.839Z,241.88
2022-12-24T10:52:44.876Z,241.88
2022-12-24T10:53:44.948Z,236.25
2022-12-24T10:54:45.041Z,230.62
2022-12-24T10:55:45.116Z,225.00
2022-12-24T10:56:45.193Z,219.38
2022-12-24T10:57:45.268Z,219.38
2022-12-24T10:58:45.364Z,219.38
2022-12-24T10:59:45.445Z,230.62
2022-12-24T11:00:45.491Z,253.12
2022-12-24T11:01:45.738Z,258.75
2022-12-24T11:02:45.876Z,258.75
2022-12-24T11:03:45.761Z,258.75
2022-12-24T11:04:45.787Z,258.75
2022-12-24T11:05:45.856Z,253.12
2022-12-24T11:06:49.172Z,258.75
2022-12-24T11:07:46.041Z,258.75
2022-12-24T11:08:46.129Z,275.62
2022-12-24T11:09:46.220Z,292.50
2022-12-24T11:10:46.265Z,303.75
2022-12-24T11:11:46.376Z,298.12
2022-12-24T11:13:00.144Z,292.50
2022-12-24T11:13:46.534Z,281.25
2022-12-24T11:14:46.631Z,275.62
2022-12-24T11:15:46.740Z,258.75
2022-12-24T11:16:46.758Z,264.38
2022-12-24T11:17:46.850Z,270.00
2022-12-24T11:18:51.303Z,286.88
2022-12-24T11:19:47.037Z,303.75
2022-12-24T11:20:47.065Z,320.62
2022-12-24T11:21:47.165Z,337.50
2022-12-24T11:22:47.232Z,337.50
2022-12-24T11:23:47.304Z,337.50
2022-12-24T11:24:50.364Z,326.25
2022-12-24T11:25:47.470Z,315.00
2022-12-24T11:26:47.551Z,286.88
2022-12-24T11:27:47.624Z,281.25
2022-12-24T11:28:47.704Z,298.12
2022-12-24T11:29:47.795Z,281.25
2022-12-24T11:30:47.950Z,241.88
2022-12-24T11:31:47.931Z,241.88
2022-12-24T11:32:47.999Z,241.88
2022-12-24T11:33:48.102Z,241.88
2022-12-24T11:34:48.189Z,236.25
2022-12-24T11:35:48.257Z,236.25
2022-12-24T11:36:48.342Z,236.25
2022-12-24T11:37:48.417Z,236.25
2022-12-24T11:38:48.483Z,208.12
2022-12-24T11:39:48.579Z,191.25
2022-12-24T11:40:48.613Z,163.12
2022-12-24T11:41:48.685Z,140.62
2022-12-24T11:42:48.766Z,118.12
2022-12-24T11:43:48.849Z,112.50
2022-12-24T11:44:48.932Z,101.25
2022-12-24T11:45:49.051Z,90.00
2022-12-24T11:46:49.102Z,84.38
2022-12-24T11:47:49.202Z,95.62
2022-12-24T11:48:49.236Z,106.88
2022-12-24T11:49:49.444Z,112.50
2022-12-24T11:50:49.413Z,101.25
2022-12-24T11:51:49.489Z,112.50
2022-12-24T11:52:49.576Z,129.38
2022-12-24T11:53:49.665Z,112.50
2022-12-24T11:54:49.754Z,106.88
2022-12-24T11:55:49.833Z,101.25
2022-12-24T11:56:49.907Z,106.88
2022-12-24T11:57:50.003Z,118.12
2022-12-24T11:58:50.082Z,129.38
2022-12-24T11:59:50.187Z,129.38
2022-12-24T12:00:50.243Z,146.25
2022-12-24T12:01:50.424Z,174.38
2022-12-24T12:02:50.422Z,208.12
2022-12-24T12:03:50.500Z,247.50
2022-12-24T12:04:50.548Z,303.75
2022-12-24T12:05:50.609Z,292.50
2022-12-24T12:06:50.681Z,286.88
2022-12-24T12:07:50.762Z,331.88
2022-12-24T12:08:50.850Z,354.38
2022-12-24T12:09:50.935Z,371.25
2022-12-24T12:10:50.976Z,382.50
2022-12-24T12:11:51.056Z,382.50
2022-12-24T12:12:51.134Z,354.38
2022-12-24T12:13:51.216Z,343.12
2022-12-24T12:14:51.310Z,315.00
2022-12-24T12:15:51.452Z,292.50
2022-12-24T12:16:51.443Z,241.88
2022-12-24T12:17:51.508Z,213.75
2022-12-24T12:18:51.589Z,202.50
2022-12-24T12:19:51.690Z,196.88
2022-12-24T12:20:51.727Z,196.88
2022-12-24T12:21:51.815Z,191.25
2022-12-24T12:22:51.897Z,191.25
2022-12-24T12:23:52.003Z,174.38
2022-12-24T12:24:52.121Z,168.75
2022-12-24T12:25:52.206Z,163.12
2022-12-24T12:26:52.251Z,168.75
2022-12-24T12:27:52.335Z,168.75
2022-12-24T12:28:52.405Z,174.38
2022-12-24T12:29:52.501Z,185.62
2022-12-24T12:30:52.537Z,180.00
2022-12-24T12:31:52.673Z,180.00
2022-12-24T12:32:52.785Z,191.25
2022-12-24T12:33:52.814Z,213.75
2022-12-24T12:34:52.925Z,241.88
2022-12-24T12:35:52.981Z,286.88
2022-12-24T12:36:53.035Z,281.25
2022-12-24T12:37:53.130Z,258.75
2022-12-24T12:38:53.180Z,247.50
2022-12-24T12:39:53.257Z,241.88
2022-12-24T12:40:53.315Z,230.62
2022-12-24T12:41:53.410Z,219.38
2022-12-24T12:42:53.485Z,225.00
2022-12-24T12:43:53.568Z,230.62
2022-12-24T12:44:53.665Z,241.88
2022-12-24T12:45:53.733Z,236.25
2022-12-24T12:46:53.865Z,225.00
2022-12-24T12:47:53.888Z,219.38
2022-12-24T12:49:00.319Z,191.25
2022-12-24T12:49:54.084Z,202.50
2022-12-24T12:50:54.123Z,202.50
2022-12-24T12:51:54.214Z,213.75
2022-12-24T12:52:54.301Z,230.62
2022-12-24T12:53:54.370Z,230.62
2022-12-24T12:54:54.477Z,225.00
2022-12-24T12:55:54.547Z,202.50
2022-12-24T12:56:54.624Z,202.50
2022-12-24T12:57:54.712Z,208.12
2022-12-24T12:58:54.800Z,202.50